createdAt,value
2023-05-18T00:00:27.800Z,1097.64
2023-05-18T00:01:27.763Z,1097.64
2023-05-18T00:02:27.859Z,1097.64
2023-05-18T00:03:27.920Z,1097.64
2023-05-18T00:04:27.745Z,1097.64
2023-05-18T00:05:27.972Z,1097.64
2023-05-18T00:06:27.690Z,1097.64
2023-05-18T00:07:27.677Z,1097.64
2023-05-18T00:08:30.661Z,1097.64
2023-05-18T00:09:30.659Z,1097.64
2023-05-18T00:10:27.691Z,1097.64
2023-05-18T00:11:27.662Z,1097.64
2023-05-18T00:12:27.614Z,1097.64
2023-05-18T00:13:27.598Z,1097.64
2023-05-18T00:14:27.582Z,1097.64
2023-05-18T00:15:27.772Z,1097.64
2023-05-18T00:16:27.627Z,1097.64
2023-05-18T00:17:27.597Z,1097.64
2023-05-18T00:18:27.527Z,1097.64
2023-05-18T00:19:27.505Z,1097.64
2023-05-18T00:20:27.501Z,1097.64
2023-05-18T00:21:27.480Z,1097.64
2023-05-18T00:22:27.479Z,1097.64
2023-05-18T00:23:27.484Z,1097.64
2023-05-18T00:24:27.440Z,1097.64
2023-05-18T00:25:27.481Z,1097.64
2023-05-18T00:26:27.414Z,1097.64
2023-05-18T00:27:27.420Z,1097.64
2023-05-18T00:28:30.413Z,1097.64
2023-05-18T00:29:30.380Z,1097.64
2023-05-18T00:30:27.388Z,1097.64
2023-05-18T00:31:27.385Z,1097.64
2023-05-18T00:32:27.428Z,1097.64
2023-05-18T00:33:27.316Z,1097.64
2023-05-18T00:34:27.319Z,1097.64
2023-05-18T00:35:27.387Z,1097.64
2023-05-18T00:36:27.315Z,1097.64
2023-05-18T00:37:27.279Z,1097.64
2023-05-18T00:38:27.260Z,1097.64
2023-05-18T00:39:27.243Z,1097.64
2023-05-18T00:40:27.227Z,1097.64
2023-05-18T00:41:27.242Z,1097.64
2023-05-18T00:42:27.214Z,1097.64
2023-05-18T00:43:27.179Z,1097.64
2023-05-18T00:44:27.171Z,1097.64
2023-05-18T00:45:27.228Z,1097.64
2023-05-18T00:46:27.303Z,1097.64
2023-05-18T00:47:27.135Z,1097.64
2023-05-18T00:48:30.153Z,1097.64
2023-05-18T00:49:30.121Z,1097.64
2023-05-18T00:50:27.112Z,1097.64
2023-05-18T00:51:27.125Z,1097.64
2023-05-18T00:52:27.069Z,1097.64
2023-05-18T00:53:27.043Z,1097.64
2023-05-18T00:54:27.030Z,1097.64
2023-05-18T00:55:27.031Z,1097.64
2023-05-18T00:56:27.034Z,1097.64
2023-05-18T00:57:26.995Z,1097.64
2023-05-18T00:58:27.021Z,1097.64
2023-05-18T00:59:26.962Z,1097.64
2023-05-18T01:00:26.958Z,1097.64
2023-05-18T01:01:26.969Z,1097.64
2023-05-18T01:02:27.031Z,1097.64
2023-05-18T01:03:26.995Z,1097.64
2023-05-18T01:04:26.961Z,1097.64
2023-05-18T01:05:26.895Z,1097.64
2023-05-18T01:06:26.876Z,1097.64
2023-05-18T01:07:26.868Z,1097.64
2023-05-18T01:08:29.843Z,1097.64
2023-05-18T01:09:29.858Z,1097.64
2023-05-18T01:10:26.828Z,1097.64
2023-05-18T01:11:26.913Z,1097.64
2023-05-18T01:12:26.784Z,1097.64
2023-05-18T01:13:26.770Z,1097.64
2023-05-18T01:14:28.653Z,1097.64
2023-05-18T01:15:26.781Z,1097.64
2023-05-18T01:16:26.758Z,1097.64
2023-05-18T01:17:26.765Z,1097.64
2023-05-18T01:18:26.703Z,1097.64
2023-05-18T01:19:26.695Z,1097.64
2023-05-18T01:20:26.727Z,1097.64
2023-05-18T01:21:26.660Z,1097.64
2023-05-18T01:22:26.650Z,1097.64
2023-05-18T01:23:26.634Z,1097.64
2023-05-18T01:24:26.645Z,1097.64
2023-05-18T01:25:26.640Z,1097.64
2023-05-18T01:26:26.618Z,1097.64
2023-05-18T01:27:26.583Z,1097.64
2023-05-18T01:28:29.624Z,1097.64
2023-05-18T01:29:29.559Z,1097.64
2023-05-18T01:30:26.542Z,1097.64
2023-05-18T01:31:26.628Z,1097.64
2023-05-18T01:32:26.544Z,1097.64
2023-05-18T01:33:26.499Z,1097.64
2023-05-18T01:34:26.480Z,1097.64
2023-05-18T01:35:26.471Z,1097.64
2023-05-18T01:36:26.487Z,1097.64
2023-05-18T01:37:26.464Z,1097.64
2023-05-18T01:38:26.422Z,1097.64
2023-05-18T01:39:26.411Z,1097.64
2023-05-18T01:40:26.406Z,1097.64
2023-05-18T01:41:26.386Z,1097.64
2023-05-18T01:42:26.401Z,1097.64
2023-05-18T01:43:26.363Z,1097.64
2023-05-18T01:44:26.355Z,1097.64
2023-05-18T01:45:26.340Z,1097.64
2023-05-18T01:46:26.359Z,1097.64
2023-05-18T01:47:26.378Z,1097.64
2023-05-18T01:48:29.299Z,1096.36
2023-05-18T01:49:29.285Z,1097.64
2023-05-18T01:50:26.265Z,1097.64
2023-05-18T01:51:26.248Z,1096.36
2023-05-18T01:52:26.269Z,1096.36
2023-05-18T01:53:26.247Z,1096.36
2023-05-18T01:54:26.215Z,1096.36
2023-05-18T01:55:26.194Z,1096.36
2023-05-18T01:56:26.189Z,1096.36
2023-05-18T01:57:26.180Z,1096.36
2023-05-18T01:58:26.181Z,1096.36
2023-05-18T01:59:26.162Z,1096.36
2023-05-18T02:00:26.129Z,1096.36
2023-05-18T02:01:26.149Z,1096.36
2023-05-18T02:02:26.206Z,1097.64
2023-05-18T02:03:26.209Z,1097.64
2023-05-18T02:04:26.074Z,1097.64
2023-05-18T02:05:26.061Z,1096.36
2023-05-18T02:06:26.058Z,1096.36
2023-05-18T02:07:26.036Z,1096.36
2023-05-18T02:08:29.082Z,1097.64
2023-05-18T02:09:29.035Z,1097.64
2023-05-18T02:10:25.994Z,1096.36
2023-05-18T02:11:25.977Z,1096.36
2023-05-18T02:12:25.968Z,1096.36
2023-05-18T02:13:25.956Z,1096.36
2023-05-18T02:14:25.984Z,1096.36
2023-05-18T02:15:25.913Z,1096.36
2023-05-18T02:16:25.983Z,1096.36
2023-05-18T02:17:25.943Z,1096.36
2023-05-18T02:18:25.879Z,1096.36
2023-05-18T02:19:25.952Z,1096.36
2023-05-18T02:20:27.411Z,1097.64
2023-05-18T02:21:25.844Z,1097.64
2023-05-18T02:22:25.830Z,1097.64
2023-05-18T02:23:25.807Z,1097.64
2023-05-18T02:24:25.805Z,1097.64
2023-05-18T02:25:25.805Z,1097.64
2023-05-18T02:26:25.842Z,1096.36
2023-05-18T02:27:25.754Z,1096.36
2023-05-18T02:28:28.735Z,1096.36
2023-05-18T02:29:28.728Z,1096.36
2023-05-18T02:30:25.723Z,1096.36
2023-05-18T02:31:25.792Z,1096.36
2023-05-18T02:32:25.769Z,1097.64
2023-05-18T02:33:25.669Z,1097.64
2023-05-18T02:34:25.659Z,1097.64
2023-05-18T02:35:25.644Z,1096.36
2023-05-18T02:36:25.635Z,1096.36
2023-05-18T02:37:25.641Z,1096.36
2023-05-18T02:38:25.616Z,1096.36
2023-05-18T02:39:25.589Z,1096.36
2023-05-18T02:40:25.592Z,1096.36
2023-05-18T02:41:25.557Z,1096.36
2023-05-18T02:42:25.603Z,1096.36
2023-05-18T02:43:25.538Z,1096.36
2023-05-18T02:44:25.522Z,1096.36
2023-05-18T02:45:25.506Z,1096.36
2023-05-18T02:46:25.556Z,1096.36
2023-05-18T02:47:25.504Z,1097.64
2023-05-18T02:48:28.552Z,1097.64
2023-05-18T02:49:28.455Z,1096.36
2023-05-18T02:50:25.447Z,1096.36
2023-05-18T02:51:25.433Z,1097.64
2023-05-18T02:52:25.409Z,1097.64
2023-05-18T02:53:25.412Z,1097.64
2023-05-18T02:54:25.419Z,1097.64
2023-05-18T02:55:25.387Z,1097.64
2023-05-18T02:56:25.374Z,1097.64
2023-05-18T02:57:25.363Z,1097.64
2023-05-18T02:58:25.380Z,1097.64
2023-05-18T02:59:25.323Z,1096.36
2023-05-18T03:00:25.310Z,1096.36
2023-05-18T03:01:25.337Z,1096.36
2023-05-18T03:02:25.336Z,1097.64
2023-05-18T03:03:25.330Z,1097.64
2023-05-18T03:04:25.288Z,1097.64
2023-05-18T03:05:25.243Z,1097.64
2023-05-18T03:06:25.257Z,1097.64
2023-05-18T03:07:25.221Z,1097.64
2023-05-18T03:08:28.209Z,1097.64
2023-05-18T03:09:28.191Z,1096.36
2023-05-18T03:10:25.173Z,1096.36
2023-05-18T03:11:25.190Z,1096.36
2023-05-18T03:12:25.159Z,1097.64
2023-05-18T03:13:25.133Z,1097.64
2023-05-18T03:14:25.124Z,1097.64
2023-05-18T03:15:25.110Z,1096.36
2023-05-18T03:16:25.190Z,1097.64
2023-05-18T03:17:25.143Z,1097.64
2023-05-18T03:18:25.080Z,1097.64
2023-05-18T03:19:25.102Z,1097.64
2023-05-18T03:20:25.047Z,1097.64
2023-05-18T03:21:25.092Z,1097.64
2023-05-18T03:22:25.019Z,1097.64
2023-05-18T03:23:24.990Z,1097.64
2023-05-18T03:24:24.988Z,1097.64
2023-05-18T03:25:24.964Z,1097.64
2023-05-18T03:26:24.959Z,1097.64
2023-05-18T03:27:24.967Z,1097.64
2023-05-18T03:28:27.934Z,1097.64
2023-05-18T03:29:29.975Z,1097.64
2023-05-18T03:30:24.909Z,1097.64
2023-05-18T03:31:24.949Z,1097.64
2023-05-18T03:32:24.928Z,1097.64
2023-05-18T03:33:24.869Z,1097.64
2023-05-18T03:34:24.849Z,1097.64
2023-05-18T03:35:24.833Z,1097.64
2023-05-18T03:36:24.815Z,1097.64
2023-05-18T03:37:25.773Z,1097.64
2023-05-18T03:38:24.818Z,1097.64
2023-05-18T03:39:24.777Z,1097.64
2023-05-18T03:40:24.782Z,1097.64
2023-05-18T03:41:24.750Z,1097.64
2023-05-18T03:42:24.770Z,1097.64
2023-05-18T03:43:24.754Z,1097.64
2023-05-18T03:44:24.718Z,1097.64
2023-05-18T03:45:24.696Z,1097.64
2023-05-18T03:46:24.743Z,1097.64
2023-05-18T03:47:24.677Z,1097.64
2023-05-18T03:48:27.728Z,1097.64
2023-05-18T03:49:27.648Z,1097.64
2023-05-18T03:50:24.638Z,1097.64
2023-05-18T03:51:24.616Z,1097.64
2023-05-18T03:52:24.616Z,1097.64
2023-05-18T03:53:24.590Z,1097.64
2023-05-18T03:54:24.615Z,1097.64
2023-05-18T03:55:24.557Z,1097.64
2023-05-18T03:56:24.547Z,1097.64
2023-05-18T03:57:24.533Z,1097.64
2023-05-18T03:58:24.523Z,1097.64
2023-05-18T03:59:24.533Z,1097.64
2023-05-18T04:00:24.507Z,1097.64
2023-05-18T04:01:24.477Z,1097.64
2023-05-18T04:02:24.603Z,1097.64
2023-05-18T04:03:24.551Z,1097.64
2023-05-18T04:04:24.518Z,1097.64
2023-05-18T04:05:24.432Z,1097.64
2023-05-18T04:06:24.449Z,1097.64
2023-05-18T04:07:24.461Z,1097.64
2023-05-18T04:08:27.396Z,1097.64
2023-05-18T04:09:27.410Z,1097.64
2023-05-18T04:10:24.366Z,1097.64
2023-05-18T04:11:24.349Z,1097.64
2023-05-18T04:12:24.374Z,1097.64
2023-05-18T04:13:24.312Z,1097.64
2023-05-18T04:14:24.306Z,1097.64
2023-05-18T04:15:24.283Z,1097.64
2023-05-18T04:16:24.317Z,1097.64
2023-05-18T04:17:24.257Z,1097.64
2023-05-18T04:18:24.277Z,1097.64
2023-05-18T04:19:24.851Z,1097.64
2023-05-18T04:20:24.227Z,1097.64
2023-05-18T04:21:24.254Z,1097.64
2023-05-18T04:22:24.204Z,1098.91
2023-05-18T04:23:24.194Z,1097.64
2023-05-18T04:24:24.166Z,1097.64
2023-05-18T04:25:24.152Z,1098.91
2023-05-18T04:26:24.136Z,1098.91
2023-05-18T04:27:24.159Z,1098.91
2023-05-18T04:28:27.104Z,1098.91
2023-05-18T04:29:27.099Z,1098.91
2023-05-18T04:30:24.091Z,1098.91
2023-05-18T04:31:24.151Z,1098.91
2023-05-18T04:32:24.090Z,1098.91
2023-05-18T04:33:24.057Z,1098.91
2023-05-18T04:34:24.025Z,1098.91
2023-05-18T04:35:24.016Z,1098.91
2023-05-18T04:36:23.998Z,1098.91
2023-05-18T04:37:24.042Z,1098.91
2023-05-18T04:38:23.975Z,1098.91
2023-05-18T04:39:23.958Z,1098.91
2023-05-18T04:40:23.949Z,1098.91
2023-05-18T04:41:23.933Z,1098.91
2023-05-18T04:42:23.927Z,1098.91
2023-05-18T04:43:23.955Z,1098.91
2023-05-18T04:44:23.887Z,1098.91
2023-05-18T04:45:23.880Z,1098.91
2023-05-18T04:46:23.904Z,1098.91
2023-05-18T04:47:23.900Z,1098.91
2023-05-18T04:48:26.875Z,1098.91
2023-05-18T04:49:26.847Z,1098.91
2023-05-18T04:50:24.070Z,1098.91
2023-05-18T04:51:23.800Z,1098.91
2023-05-18T04:52:23.782Z,1098.91
2023-05-18T04:53:23.774Z,1098.91
2023-05-18T04:54:23.806Z,1098.91
2023-05-18T04:55:23.747Z,1098.91
2023-05-18T04:56:23.724Z,1098.91
2023-05-18T04:57:23.715Z,1098.91
2023-05-18T04:58:23.709Z,1098.91
2023-05-18T04:59:23.701Z,1098.91
2023-05-18T05:00:23.706Z,1098.91
2023-05-18T05:01:23.732Z,1100.18
2023-05-18T05:02:23.710Z,1100.18
2023-05-18T05:03:23.687Z,1098.91
2023-05-18T05:04:23.642Z,1100.18
2023-05-18T05:05:23.606Z,1100.18
2023-05-18T05:06:23.586Z,1100.18
2023-05-18T05:07:23.574Z,1100.18
2023-05-18T05:08:26.567Z,1100.18
2023-05-18T05:09:26.586Z,1100.18
2023-05-18T05:10:23.532Z,1100.18
2023-05-18T05:11:23.512Z,1100.18
2023-05-18T05:12:23.500Z,1100.18
2023-05-18T05:13:23.499Z,1100.18
2023-05-18T05:14:23.502Z,1100.18
2023-05-18T05:15:23.472Z,1100.18
2023-05-18T05:16:23.472Z,1098.91
2023-05-18T05:17:23.436Z,1098.91
2023-05-18T05:18:23.416Z,1098.91
2023-05-18T05:19:23.532Z,1098.91
2023-05-18T05:20:23.399Z,1098.91
2023-05-18T05:21:23.387Z,1098.91
2023-05-18T05:22:23.367Z,1100.18
2023-05-18T05:23:23.354Z,1100.18
2023-05-18T05:24:23.331Z,1100.18
2023-05-18T05:25:23.365Z,1100.18
2023-05-18T05:26:23.306Z,1100.18
2023-05-18T05:27:23.299Z,1100.18
2023-05-18T05:28:26.287Z,1098.91
2023-05-18T05:29:26.277Z,1098.91
2023-05-18T05:30:23.246Z,1100.18
2023-05-18T05:31:23.322Z,1100.18
2023-05-18T05:32:23.255Z,1100.18
2023-05-18T05:33:23.245Z,1100.18
2023-05-18T05:34:23.194Z,1100.18
2023-05-18T05:35:23.247Z,1100.18
2023-05-18T05:36:23.165Z,1100.18
2023-05-18T05:37:23.165Z,1100.18
2023-05-18T05:38:23.151Z,1100.18
2023-05-18T05:39:23.130Z,1100.18
2023-05-18T05:40:23.124Z,1100.18
2023-05-18T05:41:23.172Z,1100.18
2023-05-18T05:42:23.096Z,1100.18
2023-05-18T05:43:23.102Z,1100.18
2023-05-18T05:44:23.055Z,1100.18
2023-05-18T05:45:23.044Z,1100.18
2023-05-18T05:46:23.096Z,1100.18
2023-05-18T05:47:23.046Z,1100.18
2023-05-18T05:48:26.010Z,1100.18
2023-05-18T05:49:25.997Z,1100.18
2023-05-18T05:50:22.992Z,1100.18
2023-05-18T05:51:23.000Z,1100.18
2023-05-18T05:52:22.961Z,1100.18
2023-05-18T05:53:22.937Z,1100.18
2023-05-18T05:54:22.923Z,1100.18
2023-05-18T05:55:22.925Z,1100.18
2023-05-18T05:56:22.896Z,1100.18
2023-05-18T05:57:22.912Z,1100.18
2023-05-18T05:58:22.879Z,1100.18
2023-05-18T05:59:22.855Z,1100.18
2023-05-18T06:00:22.852Z,1100.18
2023-05-18T06:01:22.830Z,1100.18
2023-05-18T06:02:22.949Z,1100.18
2023-05-18T06:03:23.090Z,1100.18
2023-05-18T06:04:22.811Z,1100.18
2023-05-18T06:05:22.771Z,1100.18
2023-05-18T06:06:22.756Z,1100.18
2023-05-18T06:07:22.748Z,1100.18
2023-05-18T06:08:25.758Z,1100.18
2023-05-18T06:09:25.778Z,1100.18
2023-05-18T06:10:22.699Z,1100.18
2023-05-18T06:11:22.695Z,1100.18
2023-05-18T06:12:22.679Z,1100.18
2023-05-18T06:13:22.678Z,1100.18
2023-05-18T06:14:22.642Z,1100.18
2023-05-18T06:15:22.654Z,1100.18
2023-05-18T06:16:22.694Z,1100.18
2023-05-18T06:17:22.605Z,1100.18
2023-05-18T06:18:22.589Z,1100.18
2023-05-18T06:19:22.757Z,1100.18
2023-05-18T06:20:22.594Z,1100.18
2023-05-18T06:21:22.563Z,1100.18
2023-05-18T06:22:22.547Z,1100.18
2023-05-18T06:23:22.544Z,1100.18
2023-05-18T06:24:22.543Z,1100.18
2023-05-18T06:25:22.497Z,1100.18
2023-05-18T06:26:22.470Z,1100.18
2023-05-18T06:27:22.486Z,1100.18
2023-05-18T06:28:25.447Z,1100.18
2023-05-18T06:29:25.474Z,1100.18
2023-05-18T06:30:22.427Z,1100.18
2023-05-18T06:31:22.432Z,1100.18
2023-05-18T06:32:22.601Z,1100.18
2023-05-18T06:33:22.387Z,1100.18
2023-05-18T06:34:22.412Z,1100.18
2023-05-18T06:35:22.373Z,1100.18
2023-05-18T06:36:22.374Z,1100.18
2023-05-18T06:37:22.347Z,1100.18
2023-05-18T06:38:22.336Z,1100.18
2023-05-18T06:39:22.303Z,1100.18
2023-05-18T06:40:22.319Z,1100.18
2023-05-18T06:41:22.317Z,1098.91
2023-05-18T06:42:22.272Z,1100.18
2023-05-18T06:43:22.292Z,1100.18
2023-05-18T06:44:22.251Z,1100.18
2023-05-18T06:45:22.232Z,1100.18
2023-05-18T06:46:22.248Z,1100.18
2023-05-18T06:47:22.223Z,1100.18
2023-05-18T06:48:25.235Z,1100.18
2023-05-18T06:49:25.181Z,1100.18
2023-05-18T06:50:22.167Z,1100.18
2023-05-18T06:51:22.145Z,1100.18
2023-05-18T06:52:22.158Z,1100.18
2023-05-18T06:53:22.119Z,1100.18
2023-05-18T06:54:22.143Z,1100.18
2023-05-18T06:55:22.102Z,1098.91
2023-05-18T06:56:22.107Z,1100.18
2023-05-18T06:57:22.076Z,1100.18
2023-05-18T06:58:22.057Z,1100.18
2023-05-18T06:59:22.042Z,1100.18
2023-05-18T07:00:22.020Z,1100.18
2023-05-18T07:01:22.121Z,1100.18
2023-05-18T07:02:22.005Z,1100.18
2023-05-18T07:03:22.020Z,1100.18
2023-05-18T07:04:22.005Z,1100.18
2023-05-18T07:05:21.963Z,1100.18
2023-05-18T07:06:21.947Z,1100.18
2023-05-18T07:07:21.965Z,1100.18
2023-05-18T07:08:24.921Z,1100.18
2023-05-18T07:09:24.911Z,1100.18
2023-05-18T07:10:21.881Z,1100.18
2023-05-18T07:11:21.913Z,1100.18
2023-05-18T07:12:21.862Z,1100.18
2023-05-18T07:13:21.855Z,1100.18
2023-05-18T07:14:21.831Z,1100.18
2023-05-18T07:15:21.824Z,1100.18
2023-05-18T07:16:21.908Z,1100.18
2023-05-18T07:17:21.795Z,1100.18
2023-05-18T07:18:21.783Z,1100.18
2023-05-18T07:19:21.914Z,1100.18
2023-05-18T07:20:22.669Z,1101.46
2023-05-18T07:21:21.744Z,1100.18
2023-05-18T07:22:21.775Z,1100.18
2023-05-18T07:23:21.715Z,1100.18
2023-05-18T07:24:21.700Z,1100.18
2023-05-18T07:25:21.704Z,1100.18
2023-05-18T07:26:21.676Z,1100.18
2023-05-18T07:27:21.665Z,1100.18
2023-05-18T07:28:24.677Z,1100.18
2023-05-18T07:29:24.675Z,1100.18
2023-05-18T07:30:21.624Z,1100.18
2023-05-18T07:31:21.872Z,1101.46
2023-05-18T07:32:21.628Z,1101.46
2023-05-18T07:33:21.655Z,1101.46
2023-05-18T07:34:21.569Z,1101.46
2023-05-18T07:35:21.559Z,1101.46
2023-05-18T07:36:21.527Z,1101.46
2023-05-18T07:37:21.525Z,1101.46
2023-05-18T07:38:21.511Z,1101.46
2023-05-18T07:39:21.530Z,1101.46
2023-05-18T07:40:21.507Z,1101.46
2023-05-18T07:41:21.464Z,1101.46
2023-05-18T07:42:21.473Z,1101.46
2023-05-18T07:43:21.448Z,1101.46
2023-05-18T07:44:21.420Z,1100.18
2023-05-18T07:45:21.448Z,1100.18
2023-05-18T07:46:21.431Z,1100.18
2023-05-18T07:47:21.386Z,1100.18
2023-05-18T07:48:24.363Z,1100.18
2023-05-18T07:49:24.402Z,1100.18
2023-05-18T07:50:21.357Z,1100.18
2023-05-18T07:51:21.330Z,1101.46
2023-05-18T07:52:21.307Z,1101.46
2023-05-18T07:53:21.299Z,1101.46
2023-05-18T07:54:21.291Z,1101.46
2023-05-18T07:55:21.288Z,1101.46
2023-05-18T07:56:21.244Z,1101.46
2023-05-18T07:57:21.252Z,1101.46
2023-05-18T07:58:21.221Z,1101.46
2023-05-18T07:59:21.206Z,1101.46
2023-05-18T08:00:21.251Z,1101.46
2023-05-18T08:01:21.176Z,1101.46
2023-05-18T08:02:21.212Z,1101.46
2023-05-18T08:03:21.228Z,1100.18
2023-05-18T08:04:21.173Z,1100.18
2023-05-18T08:05:21.119Z,1101.46
2023-05-18T08:06:21.161Z,1101.46
2023-05-18T08:07:21.111Z,1101.46
2023-05-18T08:08:24.127Z,1101.46
2023-05-18T08:09:24.079Z,1101.46
2023-05-18T08:10:21.057Z,1101.46
2023-05-18T08:11:21.039Z,1101.46
2023-05-18T08:12:21.024Z,1101.46
2023-05-18T08:13:21.086Z,1101.46
2023-05-18T08:14:21.056Z,1101.46
2023-05-18T08:15:21.029Z,1101.46
2023-05-18T08:16:21.030Z,1101.46
2023-05-18T08:17:20.961Z,1101.46
2023-05-18T08:18:20.944Z,1101.46
2023-05-18T08:19:21.071Z,1101.46
2023-05-18T08:20:20.927Z,1101.46
2023-05-18T08:21:20.933Z,1101.46
2023-05-18T08:22:20.920Z,1101.46
2023-05-18T08:23:20.923Z,1101.46
2023-05-18T08:24:20.857Z,1101.46
2023-05-18T08:25:20.857Z,1101.46
2023-05-18T08:26:20.822Z,1101.46
2023-05-18T08:27:20.812Z,1101.46
2023-05-18T08:28:23.849Z,1101.46
2023-05-18T08:29:23.791Z,1101.46
2023-05-18T08:30:20.775Z,1101.46
2023-05-18T08:31:20.791Z,1101.46
2023-05-18T08:32:20.810Z,1101.46
2023-05-18T08:33:20.752Z,1101.46
2023-05-18T08:34:20.763Z,1101.46
2023-05-18T08:35:20.707Z,1101.46
2023-05-18T08:36:20.692Z,1101.46
2023-05-18T08:37:20.680Z,1101.46
2023-05-18T08:38:20.674Z,1101.46
2023-05-18T08:39:20.647Z,1101.46
2023-05-18T08:40:20.683Z,1101.46
2023-05-18T08:41:20.626Z,1101.46
2023-05-18T08:42:20.603Z,1101.46
2023-05-18T08:43:20.600Z,1102.73
2023-05-18T08:44:20.586Z,1102.73
2023-05-18T08:45:20.569Z,1102.73
2023-05-18T08:46:20.575Z,1102.73
2023-05-18T08:47:20.568Z,1102.73
2023-05-18T08:48:26.355Z,1102.73
2023-05-18T08:49:23.521Z,1102.73
2023-05-18T08:50:22.092Z,1102.73
2023-05-18T08:51:20.487Z,1102.73
2023-05-18T08:52:20.469Z,1102.73
2023-05-18T08:53:20.469Z,1102.73
2023-05-18T08:54:20.487Z,1102.73
2023-05-18T08:55:20.428Z,1102.73
2023-05-18T08:56:20.415Z,1101.46
2023-05-18T08:57:20.396Z,1101.46
2023-05-18T08:58:20.390Z,1101.46
2023-05-18T08:59:20.368Z,1102.73
2023-05-18T09:00:21.672Z,1102.73
2023-05-18T09:01:20.370Z,1102.73
2023-05-18T09:02:20.389Z,1102.73
2023-05-18T09:03:20.343Z,1101.46
2023-05-18T09:04:20.341Z,1101.46
2023-05-18T09:05:20.363Z,1101.46
2023-05-18T09:06:21.057Z,1101.46
2023-05-18T09:07:20.272Z,1101.46
2023-05-18T09:08:23.249Z,1101.46
2023-05-18T09:09:23.254Z,1101.46
2023-05-18T09:10:20.232Z,1101.46
2023-05-18T09:11:20.199Z,1101.46
2023-05-18T09:12:21.276Z,1102.73
2023-05-18T09:13:20.183Z,1102.73
2023-05-18T09:14:20.214Z,1101.46
2023-05-18T09:15:20.149Z,1101.46
2023-05-18T09:16:20.154Z,1102.73
2023-05-18T09:17:20.132Z,1102.73
2023-05-18T09:18:22.820Z,1102.73
2023-05-18T09:19:20.232Z,1102.73
2023-05-18T09:20:20.131Z,1102.73
2023-05-18T09:21:20.058Z,1102.73
2023-05-18T09:22:20.065Z,1102.73
2023-05-18T09:23:20.050Z,1102.73
2023-05-18T09:24:21.359Z,1101.46
2023-05-18T09:25:20.006Z,1102.73
2023-05-18T09:26:20.051Z,1102.73
2023-05-18T09:27:19.995Z,1102.73
2023-05-18T09:28:22.975Z,1102.73
2023-05-18T09:29:22.979Z,1102.73
2023-05-18T09:30:19.966Z,1102.73
2023-05-18T09:31:19.936Z,1102.73
2023-05-18T09:32:19.974Z,1102.73
2023-05-18T09:33:19.946Z,1102.73
2023-05-18T09:34:19.884Z,1102.73
2023-05-18T09:35:19.875Z,1102.73
2023-05-18T09:36:19.862Z,1102.73
2023-05-18T09:37:19.849Z,1102.73
2023-05-18T09:38:19.871Z,1102.73
2023-05-18T09:39:19.820Z,1102.73
2023-05-18T09:40:19.814Z,1102.73
2023-05-18T09:41:19.817Z,1102.73
2023-05-18T09:42:20.167Z,1102.73
2023-05-18T09:43:19.793Z,1102.73
2023-05-18T09:44:19.811Z,1102.73
2023-05-18T09:45:19.744Z,1102.73
2023-05-18T09:46:19.742Z,1102.73
2023-05-18T09:47:19.701Z,1102.73
2023-05-18T09:48:24.814Z,1102.73
2023-05-18T09:49:22.737Z,1102.73
2023-05-18T09:50:19.702Z,1102.73
2023-05-18T09:51:19.646Z,1102.73
2023-05-18T09:52:19.636Z,1102.73
2023-05-18T09:53:19.628Z,1102.73
2023-05-18T09:54:19.633Z,1102.73
2023-05-18T09:55:19.677Z,1102.73
2023-05-18T09:56:19.591Z,1102.73
2023-05-18T09:57:19.564Z,1102.73
2023-05-18T09:58:19.551Z,1102.73
2023-05-18T09:59:19.547Z,1102.73
2023-05-18T10:00:19.790Z,1102.73
2023-05-18T10:01:19.597Z,1103.63
2023-05-18T10:02:19.536Z,1100.25
2023-05-18T10:03:19.480Z,1096.58
2023-05-18T10:04:19.516Z,1092.05
2023-05-18T10:05:19.486Z,1095.77
2023-05-18T10:06:19.451Z,1103.33
2023-05-18T10:07:19.488Z,1102.73
2023-05-18T10:08:22.428Z,1102.73
2023-05-18T10:09:22.399Z,1102.73
2023-05-18T10:10:19.416Z,1102.73
2023-05-18T10:11:19.380Z,1102.73
2023-05-18T10:12:19.358Z,1102.73
2023-05-18T10:13:19.392Z,1102.73
2023-05-18T10:14:20.112Z,1102.73
2023-05-18T10:15:19.332Z,1102.73
2023-05-18T10:16:19.343Z,1102.73
2023-05-18T10:17:19.329Z,1102.73
2023-05-18T10:18:19.325Z,1102.73
2023-05-18T10:19:19.325Z,1102.73
2023-05-18T10:20:19.430Z,1101.46
2023-05-18T10:21:19.245Z,1101.46
2023-05-18T10:22:19.444Z,1102.73
2023-05-18T10:23:19.361Z,1102.73
2023-05-18T10:24:19.196Z,1102.73
2023-05-18T10:25:19.188Z,1102.73
2023-05-18T10:26:19.202Z,1102.73
2023-05-18T10:27:19.151Z,1102.73
2023-05-18T10:28:22.198Z,1102.73
2023-05-18T10:29:22.180Z,1102.73
2023-05-18T10:30:19.221Z,1102.73
2023-05-18T10:31:19.144Z,1102.73
2023-05-18T10:32:19.094Z,1102.73
2023-05-18T10:33:28.355Z,1102.73
2023-05-18T10:34:20.117Z,1102.73
2023-05-18T10:35:19.050Z,1102.73
2023-05-18T10:36:19.037Z,1102.73
2023-05-18T10:37:19.024Z,1102.73
2023-05-18T10:38:19.015Z,1102.73
2023-05-18T10:39:18.997Z,1102.73
2023-05-18T10:40:19.073Z,1102.73
2023-05-18T10:41:18.977Z,1102.73
2023-05-18T10:42:18.962Z,1102.73
2023-05-18T10:43:19.886Z,1102.73
2023-05-18T10:44:18.920Z,1104.00
2023-05-18T10:45:18.914Z,1101.15
2023-05-18T10:46:19.058Z,1103.17
2023-05-18T10:47:18.986Z,1102.73
2023-05-18T10:48:21.888Z,1102.73
2023-05-18T10:49:21.869Z,1102.73
2023-05-18T10:50:18.863Z,1102.73
2023-05-18T10:51:19.326Z,1102.73
2023-05-18T10:52:18.832Z,1102.73
2023-05-18T10:53:18.800Z,1102.73
2023-05-18T10:54:18.802Z,1102.73
2023-05-18T10:55:18.817Z,1102.73
2023-05-18T10:56:18.793Z,1102.73
2023-05-18T10:57:18.764Z,1104.00
2023-05-18T10:58:18.755Z,1095.21
2023-05-18T10:59:18.750Z,1093.87
2023-05-18T11:00:18.710Z,1093.15
2023-05-18T11:01:18.769Z,1079.10
2023-05-18T11:02:18.691Z,1073.31
2023-05-18T11:03:18.728Z,1072.86
2023-05-18T11:04:18.681Z,1089.34
2023-05-18T11:05:18.823Z,1073.67
2023-05-18T11:06:18.735Z,1055.74
2023-05-18T11:07:18.639Z,1070.97
2023-05-18T11:08:21.632Z,1088.23
2023-05-18T11:09:21.590Z,1098.81
2023-05-18T11:10:18.582Z,1094.66
2023-05-18T11:11:19.665Z,1091.33
2023-05-18T11:12:18.559Z,1096.86
2023-05-18T11:13:18.560Z,1095.19
2023-05-18T11:14:18.529Z,1090.16
2023-05-18T11:15:18.512Z,1103.11
2023-05-18T11:16:18.619Z,1102.25
2023-05-18T11:17:18.508Z,1102.73
2023-05-18T11:18:18.547Z,1102.73
2023-05-18T11:19:18.531Z,1102.73
2023-05-18T11:20:18.477Z,1102.73
2023-05-18T11:21:18.413Z,1102.73
2023-05-18T11:22:18.412Z,1102.73
2023-05-18T11:23:18.456Z,1102.73
2023-05-18T11:24:18.389Z,1104.00
2023-05-18T11:25:18.405Z,1097.66
2023-05-18T11:26:18.352Z,1089.09
2023-05-18T11:27:18.344Z,1079.04
2023-05-18T11:28:21.327Z,1080.19
2023-05-18T11:29:21.317Z,1079.20
2023-05-18T11:30:18.297Z,1084.89
2023-05-18T11:31:18.319Z,1100.31
2023-05-18T11:32:22.673Z,1101.82
2023-05-18T11:33:19.339Z,1091.67
2023-05-18T11:34:18.245Z,1077.07
2023-05-18T11:35:18.234Z,1070.57
2023-05-18T11:36:18.287Z,1068.37
2023-05-18T11:37:18.208Z,1060.75
2023-05-18T11:38:18.198Z,1046.87
2023-05-18T11:39:18.179Z,1034.12
2023-05-18T11:40:18.171Z,1091.47
2023-05-18T11:41:18.156Z,1102.73
2023-05-18T11:42:18.192Z,1102.73
2023-05-18T11:43:18.124Z,1102.73
2023-05-18T11:44:18.111Z,1102.73
2023-05-18T11:45:18.090Z,1102.73
2023-05-18T11:46:18.093Z,1102.73
2023-05-18T11:47:18.113Z,1102.73
2023-05-18T11:48:21.202Z,1103.94
2023-05-18T11:49:21.051Z,1096.06
2023-05-18T11:50:18.034Z,1097.97
2023-05-18T11:51:18.020Z,1093.56
2023-05-18T11:52:18.013Z,1100.03
2023-05-18T11:53:18.036Z,1102.73
2023-05-18T11:54:17.983Z,1102.73
2023-05-18T11:55:17.967Z,1102.73
2023-05-18T11:56:17.961Z,1102.73
2023-05-18T11:57:18.581Z,1102.73
2023-05-18T11:58:17.925Z,1102.73
2023-05-18T11:59:17.915Z,1102.73
2023-05-18T12:00:17.916Z,1102.73
2023-05-18T12:01:17.919Z,1102.73
2023-05-18T12:02:18.026Z,1102.73
2023-05-18T12:03:17.974Z,1104.00
2023-05-18T12:04:17.983Z,1093.69
2023-05-18T12:05:17.854Z,1077.35